createdAt,value
2022-12-17T00:02:14.656Z,12.13
2022-12-17T00:04:59.956Z,11.77
2022-12-17T00:07:45.137Z,10.43
2022-12-17T00:10:30.342Z,13.37
2022-12-17T00:13:15.470Z,11.47
2022-12-17T00:16:01.272Z,13.33
2022-12-17T00:18:46.589Z,12.60
2022-12-17T00:21:31.758Z,10.27
2022-12-17T00:24:17.060Z,9.90
2022-12-17T00:27:02.318Z,12.30
2022-12-17T00:29:47.654Z,14.40
2022-12-17T00:32:32.942Z,12.13
2022-12-17T00:35:18.166Z,13.50
2022-12-17T00:38:18.673Z,11.77
2022-12-17T00:41:09.412Z,10.80
2022-12-17T00:43:56.366Z,14.20
2022-12-17T00:46:41.677Z,13.27
2022-12-17T00:49:26.934Z,14.17
2022-12-17T00:52:12.144Z,16.70
2022-12-17T00:54:57.374Z,11.73
2022-12-17T00:57:42.609Z,14.33
2022-12-17T01:00:28.490Z,17.60
2022-12-17T01:03:27.997Z,13.97
2022-12-17T01:06:13.393Z,13.77
2022-12-17T01:08:59.224Z,14.70
2022-12-17T01:11:44.611Z,14.83
2022-12-17T01:14:29.874Z,15.63
2022-12-17T01:17:15.120Z,14.63
2022-12-17T01:20:00.499Z,16.10
2022-12-17T01:22:45.836Z,16.80
2022-12-17T01:25:31.265Z,16.30
2022-12-17T01:28:16.637Z,15.97
2022-12-17T01:31:01.873Z,17.77
2022-12-17T01:33:47.116Z,18.83
2022-12-17T01:36:32.335Z,17.03
2022-12-17T01:39:17.573Z,17.40
2022-12-17T01:42:02.857Z,15.70
2022-12-17T01:45:09.464Z,16.50
2022-12-17T01:47:59.824Z,16.87
2022-12-17T01:50:50.282Z,15.63
2022-12-17T01:53:41.366Z,15.43
2022-12-17T01:56:26.646Z,14.97
2022-12-17T01:59:12.309Z,17.17
2022-12-17T02:01:58.731Z,14.97
2022-12-17T02:04:43.926Z,16.23
2022-12-17T02:07:45.600Z,16.10
2022-12-17T02:10:56.548Z,15.27
2022-12-17T02:13:51.229Z,15.83
2022-12-17T02:16:42.981Z,17.00
2022-12-17T02:20:10.573Z,17.10
2022-12-17T02:23:11.207Z,17.37
2022-12-17T02:26:34.826Z,19.97
2022-12-17T02:29:23.500Z,15.07
2022-12-17T02:32:10.472Z,17.03
2022-12-17T02:35:03.585Z,18.30
2022-12-17T02:37:48.924Z,17.10
2022-12-17T02:40:36.123Z,20.30
2022-12-17T02:43:21.900Z,21.23
2022-12-17T02:46:08.640Z,19.43
2022-12-17T02:48:53.877Z,20.77
2022-12-17T02:51:40.426Z,19.70
2022-12-17T02:54:26.636Z,20.50
2022-12-17T02:57:12.801Z,19.47
2022-12-17T02:59:57.985Z,19.13
2022-12-17T03:02:43.331Z,20.70
2022-12-17T03:05:44.473Z,18.80
2022-12-17T03:08:50.399Z,21.10
2022-12-17T03:11:35.722Z,19.30
2022-12-17T03:14:20.833Z,18.63
2022-12-17T03:17:06.020Z,20.13
2022-12-17T03:19:51.211Z,18.30
2022-12-17T03:22:36.542Z,18.93
2022-12-17T03:25:22.236Z,20.47
2022-12-17T03:28:07.513Z,19.40
2022-12-17T03:30:52.608Z,17.07
2022-12-17T03:33:38.605Z,19.87
2022-12-17T03:36:24.046Z,19.27
2022-12-17T03:39:09.236Z,25.47
2022-12-17T03:41:54.646Z,19.07
2022-12-17T03:44:40.008Z,18.47
2022-12-17T03:47:25.187Z,22.80
2022-12-17T03:50:10.299Z,20.80
2022-12-17T03:52:55.608Z,19.00
2022-12-17T03:55:40.924Z,20.53
2022-12-17T03:58:26.087Z,21.73
2022-12-17T04:01:11.515Z,19.00
2022-12-17T04:03:57.068Z,19.77
2022-12-17T04:06:42.537Z,17.50
2022-12-17T04:09:27.887Z,19.30
2022-12-17T04:12:12.880Z,18.53
2022-12-17T04:14:58.112Z,18.03
2022-12-17T04:17:43.194Z,16.17
2022-12-17T04:20:29.205Z,19.23
2022-12-17T04:23:14.445Z,16.97
2022-12-17T04:25:59.727Z,17.47
2022-12-17T04:28:44.969Z,16.30
2022-12-17T04:31:30.287Z,17.43
2022-12-17T04:34:15.486Z,16.00
2022-12-17T04:37:00.649Z,17.43
2022-12-17T04:39:45.955Z,15.83
2022-12-17T04:42:31.246Z,12.23
2022-12-17T04:45:16.456Z,16.67
2022-12-17T04:48:01.762Z,14.50
2022-12-17T04:50:46.935Z,15.17
2022-12-17T04:53:32.355Z,15.57
2022-12-17T04:56:17.597Z,14.80
2022-12-17T04:59:02.960Z,14.57
2022-12-17T05:01:48.266Z,14.77
2022-12-17T05:04:33.566Z,13.77
2022-12-17T05:07:18.799Z,15.43
2022-12-17T05:10:04.133Z,15.77
2022-12-17T05:12:49.428Z,15.27
2022-12-17T05:15:34.662Z,14.10
2022-12-17T05:18:29.234Z,11.40
2022-12-17T05:21:14.410Z,15.07
2022-12-17T05:23:59.604Z,14.97
2022-12-17T05:26:47.269Z,14.93
2022-12-17T05:29:32.412Z,14.87
2022-12-17T05:32:18.308Z,14.93
2022-12-17T05:35:03.508Z,16.87
2022-12-17T05:37:48.814Z,17.00
2022-12-17T05:40:33.938Z,17.03
2022-12-17T05:43:23.383Z,13.23
2022-12-17T05:46:09.994Z,17.43
2022-12-17T05:48:55.076Z,20.07
2022-12-17T05:51:40.987Z,18.60
2022-12-17T05:54:26.817Z,19.13
2022-12-17T05:57:13.016Z,17.60
2022-12-17T05:59:58.606Z,17.47
2022-12-17T06:02:43.894Z,16.77
2022-12-17T06:05:29.610Z,21.43
2022-12-17T06:08:26.011Z,18.23
2022-12-17T06:11:11.283Z,20.93
2022-12-17T06:13:56.651Z,22.67
2022-12-17T06:16:42.150Z,19.20
2022-12-17T06:19:27.516Z,20.33
2022-12-17T06:22:12.784Z,19.37
2022-12-17T06:24:58.062Z,21.57
2022-12-17T06:27:43.271Z,19.63
2022-12-17T06:30:29.030Z,20.00
2022-12-17T06:33:29.838Z,19.40
2022-12-17T06:36:22.086Z,21.70
2022-12-17T06:39:08.057Z,18.17
2022-12-17T06:42:02.132Z,21.67
2022-12-17T06:44:49.385Z,20.27
2022-12-17T06:47:34.742Z,22.00
2022-12-17T06:50:20.074Z,22.30
2022-12-17T06:53:05.426Z,20.50
2022-12-17T06:55:53.990Z,23.80
2022-12-17T06:58:39.250Z,22.43
2022-12-17T07:01:24.709Z,23.63
2022-12-17T07:04:10.241Z,24.90
2022-12-17T07:06:55.432Z,22.30
2022-12-17T07:09:40.555Z,20.80
2022-12-17T07:12:25.845Z,22.60
2022-12-17T07:15:11.245Z,21.90
2022-12-17T07:17:56.614Z,21.47
2022-12-17T07:20:41.800Z,21.43
2022-12-17T07:23:27.578Z,21.07
2022-12-17T07:26:13.185Z,21.07
2022-12-17T07:29:00.090Z,18.73
2022-12-17T07:31:45.388Z,20.67
2022-12-17T07:34:31.492Z,22.70
2022-12-17T07:37:20.491Z,25.10
2022-12-17T07:40:06.347Z,19.73
2022-12-17T07:42:51.682Z,18.30
2022-12-17T07:45:37.012Z,22.03
2022-12-17T07:48:22.691Z,19.90
2022-12-17T07:51:08.661Z,19.70
2022-12-17T07:53:53.891Z,17.53
2022-12-17T07:56:39.223Z,20.00
2022-12-17T07:59:24.323Z,19.90
2022-12-17T08:02:09.930Z,19.50
2022-12-17T08:04:55.880Z,21.10
2022-12-17T08:07:41.071Z,22.70
2022-12-17T08:10:26.985Z,19.97
2022-12-17T08:13:17.015Z,21.53
2022-12-17T08:16:02.095Z,20.50
2022-12-17T08:18:47.883Z,19.63
2022-12-17T08:21:33.582Z,21.43
2022-12-17T08:24:18.772Z,20.43
2022-12-17T08:27:04.038Z,22.10
2022-12-17T08:29:49.289Z,20.33
2022-12-17T08:32:35.099Z,21.87
2022-12-17T08:35:20.908Z,24.10
2022-12-17T08:38:06.060Z,19.97
2022-12-17T08:40:51.443Z,21.60
2022-12-17T08:43:37.269Z,18.83
2022-12-17T08:46:36.833Z,19.80
2022-12-17T08:49:21.912Z,20.67
2022-12-17T08:52:07.380Z,20.87
2022-12-17T08:54:52.764Z,22.03
2022-12-17T08:57:41.525Z,19.60
2022-12-17T09:00:28.406Z,21.63
2022-12-17T09:03:20.923Z,20.60
2022-12-17T09:06:06.767Z,23.83
2022-12-17T09:08:51.914Z,20.97
2022-12-17T09:11:37.290Z,23.20
2022-12-17T09:14:22.459Z,24.47
2022-12-17T09:17:07.810Z,23.93
2022-12-17T09:19:53.080Z,24.20
2022-12-17T09:22:38.315Z,21.67
2022-12-17T09:25:24.080Z,22.37
2022-12-17T09:28:09.271Z,24.17
2022-12-17T09:30:54.591Z,23.10
2022-12-17T09:33:40.213Z,25.60
2022-12-17T09:36:26.186Z,27.07
2022-12-17T09:39:11.442Z,25.60
2022-12-17T09:42:34.544Z,24.70
2022-12-17T09:45:26.839Z,24.57
2022-12-17T09:48:54.759Z,22.37
2022-12-17T09:51:44.698Z,27.30
2022-12-17T09:55:00.975Z,24.20
2022-12-17T09:57:50.653Z,26.53
2022-12-17T10:00:47.362Z,23.63
2022-12-17T10:03:40.068Z,25.27
2022-12-17T10:06:37.581Z,24.63
2022-12-17T10:09:31.393Z,26.10
2022-12-17T10:12:21.125Z,23.73
2022-12-17T10:15:06.303Z,26.03
2022-12-17T10:17:51.518Z,24.77
2022-12-17T10:20:43.965Z,24.77
2022-12-17T10:23:29.294Z,23.73
2022-12-17T10:26:15.482Z,26.10
2022-12-17T10:29:00.922Z,24.93
2022-12-17T10:31:48.867Z,22.87
2022-12-17T10:34:38.991Z,23.27
2022-12-17T10:37:25.185Z,25.27
2022-12-17T10:40:18.706Z,20.87
2022-12-17T10:43:05.012Z,25.03
2022-12-17T10:45:53.080Z,24.73
2022-12-17T10:48:58.483Z,22.77
2022-12-17T10:51:53.068Z,24.60
2022-12-17T10:54:50.042Z,26.47
2022-12-17T10:58:02.285Z,26.97
2022-12-17T11:00:50.528Z,31.30
2022-12-17T11:04:02.671Z,30.73
2022-12-17T11:06:54.998Z,27.30
2022-12-17T11:09:52.391Z,25.73
2022-12-17T11:12:44.521Z,28.63
2022-12-17T11:15:38.192Z,26.27
2022-12-17T11:18:29.699Z,24.13
2022-12-17T11:21:24.864Z,25.00
2022-12-17T11:24:11.314Z,27.17
2022-12-17T11:27:00.016Z,23.83
2022-12-17T11:29:45.768Z,24.97
2022-12-17T11:32:53.385Z,26.13
2022-12-17T11:35:54.557Z,26.97
2022-12-17T11:38:52.128Z,27.23
2022-12-17T11:41:43.745Z,30.00
2022-12-17T11:45:30.440Z,26.63
2022-12-17T11:48:20.273Z,25.00
2022-12-17T11:51:47.077Z,27.20
2022-12-17T11:54:52.089Z,27.57
2022-12-17T11:57:47.383Z,26.77
2022-12-17T12:00:41.258Z,28.10
2022-12-17T12:03:32.542Z,24.33
2022-12-17T12:06:19.869Z,26.50
2022-12-17T12:09:26.955Z,23.53
2022-12-17T12:12:28.980Z,23.27
2022-12-17T12:15:45.009Z,25.30
2022-12-17T12:19:09.344Z,26.63
2022-12-17T12:21:54.497Z,23.20
2022-12-17T12:24:46.825Z,24.63
2022-12-17T12:27:45.662Z,26.57
2022-12-17T12:30:35.542Z,26.13
2022-12-17T12:33:49.076Z,24.37
2022-12-17T12:36:37.292Z,25.00
2022-12-17T12:39:24.106Z,28.63
2022-12-17T12:42:16.994Z,24.87
2022-12-17T12:45:21.915Z,24.53
2022-12-17T12:48:30.541Z,24.80
2022-12-17T12:51:38.145Z,23.90
2022-12-17T12:55:02.628Z,23.73
2022-12-17T12:58:15.311Z,24.27
2022-12-17T13:01:06.810Z,23.50
2022-12-17T13:03:56.802Z,23.03
2022-12-17T13:06:59.146Z,23.63
2022-12-17T13:09:34.197Z,20.97
2022-12-17T13:12:04.640Z,23.33
2022-12-17T13:14:34.283Z,24.67
2022-12-17T13:17:06.977Z,24.10
2022-12-17T13:19:39.645Z,22.77
2022-12-17T13:22:36.428Z,25.63
2022-12-17T13:25:17.588Z,24.53
2022-12-17T13:27:44.362Z,23.97
2022-12-17T13:30:17.302Z,23.30
2022-12-17T13:32:56.606Z,23.07
2022-12-17T13:36:03.969Z,22.73
2022-12-17T13:38:37.996Z,24.00
2022-12-17T13:41:13.356Z,23.30
2022-12-17T13:43:52.378Z,21.83
2022-12-17T13:46:25.326Z,23.43
2022-12-17T13:49:00.874Z,21.80
2022-12-17T13:51:29.872Z,21.17
2022-12-17T13:54:01.896Z,22.47
2022-12-17T13:56:37.949Z,22.20
2022-12-17T13:59:09.120Z,22.87
2022-12-17T14:01:48.901Z,24.03
2022-12-17T14:04:24.699Z,21.87
2022-12-17T14:06:56.766Z,21.93
2022-12-17T14:09:35.649Z,24.13
2022-12-17T14:12:24.567Z,21.17
2022-12-17T14:15:17.411Z,21.97
2022-12-17T14:17:46.106Z,21.67
2022-12-17T14:20:22.625Z,24.03
2022-12-17T14:22:55.965Z,26.80
2022-12-17T14:25:25.970Z,24.10
2022-12-17T14:27:58.722Z,21.53
2022-12-17T14:30:33.323Z,20.83
2022-12-17T14:33:00.334Z,21.97
2022-12-17T14:35:32.830Z,22.10
2022-12-17T14:37:59.648Z,21.33
2022-12-17T14:40:26.719Z,21.97
2022-12-17T14:43:00.264Z,22.90
2022-12-17T14:45:28.810Z,20.13
2022-12-17T14:48:00.899Z,21.63
2022-12-17T14:50:29.915Z,20.20
2022-12-17T14:52:58.813Z,19.83
2022-12-17T14:55:38.727Z,20.27
2022-12-17T14:58:11.343Z,23.87
2022-12-17T15:00:39.924Z,21.07
2022-12-17T15:03:20.134Z,19.93
2022-12-17T15:05:51.509Z,20.13
2022-12-17T15:08:19.469Z,26.80
2022-12-17T15:10:46.181Z,19.97
2022-12-17T15:13:13.329Z,20.37
2022-12-17T15:15:40.004Z,17.23
2022-12-17T15:18:06.681Z,18.57
2022-12-17T15:20:33.420Z,20.53
2022-12-17T15:23:01.756Z,20.73
2022-12-17T15:25:28.521Z,20.20
2022-12-17T15:27:55.500Z,18.87
2022-12-17T15:30:22.308Z,18.43
2022-12-17T15:32:48.944Z,18.47
2022-12-17T15:35:15.608Z,17.20
2022-12-17T15:37:42.303Z,17.83
2022-12-17T15:40:11.903Z,17.83
2022-12-17T15:43:01.662Z,19.03
2022-12-17T15:45:32.752Z,14.77
2022-12-17T15:47:59.410Z,15.40
2022-12-17T15:50:26.087Z,17.73
2022-12-17T15:52:52.721Z,18.03
2022-12-17T15:55:19.411Z,17.47
2022-12-17T15:57:46.413Z,18.67
2022-12-17T16:00:13.462Z,18.63
2022-12-17T16:02:40.465Z,17.13
2022-12-17T16:05:08.121Z,16.37
2022-12-17T16:07:34.949Z,17.63
2022-12-17T16:10:05.426Z,16.07
2022-12-17T16:12:33.626Z,17.00
2022-12-17T16:15:00.352Z,15.23
2022-12-17T16:17:27.133Z,15.33
2022-12-17T16:19:53.872Z,16.13
2022-12-17T16:22:20.655Z,15.03
2022-12-17T16:24:47.595Z,14.83
2022-12-17T16:27:15.829Z,17.63
2022-12-17T16:29:42.504Z,15.83
2022-12-17T16:32:09.211Z,16.00
2022-12-17T16:34:35.911Z,15.60
2022-12-17T16:37:02.692Z,16.97
2022-12-17T16:39:29.384Z,13.53
2022-12-17T16:41:56.112Z,16.17
2022-12-17T16:44:22.882Z,12.30
2022-12-17T16:46:49.850Z,15.17
2022-12-17T16:49:19.350Z,16.73
2022-12-17T16:51:48.347Z,17.50
2022-12-17T16:54:17.328Z,18.80
2022-12-17T16:56:46.226Z,18.43
2022-12-17T16:59:14.321Z,18.00
2022-12-17T17:01:44.800Z,17.07
2022-12-17T17:04:15.864Z,14.73
2022-12-17T17:06:48.738Z,13.73
2022-12-17T17:09:16.231Z,15.40
2022-12-17T17:11:48.154Z,15.50
2022-12-17T17:14:17.915Z,16.87
2022-12-17T17:16:44.668Z,16.53
2022-12-17T17:19:11.313Z,16.80
2022-12-17T17:21:39.892Z,12.80
2022-12-17T17:24:21.384Z,13.57
2022-12-17T17:26:50.301Z,14.27
2022-12-17T17:29:17.132Z,14.43
2022-12-17T17:32:14.221Z,15.33
2022-12-17T17:34:30.706Z,14.73
2022-12-17T17:36:57.376Z,14.87
2022-12-17T17:39:24.065Z,14.53
2022-12-17T17:41:50.724Z,11.23
2022-12-17T17:44:17.373Z,15.10
2022-12-17T17:46:44.308Z,14.87
2022-12-17T17:49:11.847Z,16.30
2022-12-17T17:54:28.671Z,15.20
2022-12-17T17:56:55.575Z,18.70
2022-12-17T17:59:30.865Z,15.90
2022-12-17T18:02:00.660Z,16.73
2022-12-17T18:04:28.255Z,10.77
2022-12-17T18:09:41.981Z,13.40
2022-12-17T18:12:27.303Z,14.13
2022-12-17T18:15:13.594Z,15.27
2022-12-17T18:17:41.698Z,17.97
2022-12-17T18:20:10.253Z,13.30
2022-12-17T18:22:38.401Z,14.83
2022-12-17T18:25:05.507Z,15.67
2022-12-17T18:27:32.267Z,14.30
2022-12-17T18:30:00.418Z,14.23
2022-12-17T18:32:27.133Z,15.67
2022-12-17T18:34:53.945Z,14.17
2022-12-17T18:37:20.755Z,12.53
2022-12-17T18:39:49.055Z,17.27
2022-12-17T18:42:34.322Z,18.20
2022-12-17T18:45:03.287Z,13.97
2022-12-17T18:47:30.246Z,17.20
2022-12-17T18:49:57.410Z,11.77
2022-12-17T18:52:24.753Z,15.00
2022-12-17T18:54:51.681Z,14.00
2022-12-17T18:57:22.625Z,11.40
2022-12-17T18:59:49.341Z,17.07
2022-12-17T19:02:16.248Z,17.07
2022-12-17T19:04:44.523Z,18.90
2022-12-17T19:07:11.269Z,18.87
2022-12-17T19:09:40.139Z,20.53
2022-12-17T19:12:09.120Z,22.60
2022-12-17T19:14:36.501Z,18.00
2022-12-17T19:17:04.115Z,17.50
2022-12-17T19:19:30.873Z,16.20
2022-12-17T19:21:59.998Z,15.53
2022-12-17T19:24:27.888Z,16.20
2022-12-17T19:26:54.658Z,15.33
2022-12-17T19:29:22.364Z,16.17
2022-12-17T19:31:49.235Z,17.43
2022-12-17T19:34:18.519Z,18.83
2022-12-17T19:36:45.855Z,18.07
2022-12-17T19:39:15.900Z,19.57
2022-12-17T19:41:42.599Z,18.70
2022-12-17T19:44:13.741Z,16.60
2022-12-17T19:46:41.036Z,16.33
2022-12-17T19:49:10.691Z,18.37
2022-12-17T19:51:39.590Z,18.13
2022-12-17T19:54:09.189Z,19.63
2022-12-17T19:56:36.540Z,18.90
2022-12-17T19:59:07.374Z,18.13
2022-12-17T20:01:41.547Z,17.73
2022-12-17T20:04:10.676Z,21.30
2022-12-17T20:06:37.718Z,19.53
2022-12-17T20:09:06.169Z,20.83
2022-12-17T20:11:33.330Z,18.33
2022-12-17T20:14:10.786Z,21.47
2022-12-17T20:16:40.523Z,20.37
2022-12-17T20:19:11.093Z,17.23
2022-12-17T20:21:38.877Z,15.10
2022-12-17T20:24:05.933Z,18.27
2022-12-17T20:26:33.008Z,17.77
2022-12-17T20:28:59.728Z,18.93
2022-12-17T20:31:27.976Z,16.03
2022-12-17T20:33:55.052Z,17.63
2022-12-17T20:36:23.237Z,17.70
2022-12-17T20:38:50.115Z,18.67
2022-12-17T20:41:20.104Z,18.73
2022-12-17T20:43:47.778Z,19.07
2022-12-17T20:46:14.752Z,15.80
2022-12-17T20:48:43.718Z,18.17
2022-12-17T20:51:14.103Z,17.77
2022-12-17T20:53:41.313Z,17.37
2022-12-17T20:56:10.924Z,19.47
2022-12-17T20:58:39.533Z,17.73
2022-12-17T21:01:15.182Z,17.80
2022-12-17T21:03:42.905Z,17.60
2022-12-17T21:06:23.718Z,18.93
2022-12-17T21:08:52.529Z,17.43
2022-12-17T21:11:22.283Z,17.80
2022-12-17T21:13:49.981Z,15.23
2022-12-17T21:16:28.936Z,18.30
2022-12-17T21:18:56.985Z,17.47
2022-12-17T21:21:29.892Z,16.00
2022-12-17T21:23:57.332Z,16.90
2022-12-17T21:26:31.185Z,17.63
2022-12-17T21:28:58.275Z,19.40
2022-12-17T21:31:35.426Z,18.20
2022-12-17T21:34:04.025Z,18.37
2022-12-17T21:36:32.998Z,16.13
2022-12-17T21:39:00.734Z,16.17
2022-12-17T21:41:32.494Z,18.00
2022-12-17T21:44:02.255Z,19.83
2022-12-17T21:46:30.126Z,15.83
2022-12-17T21:48:58.780Z,14.47
2022-12-17T21:51:26.010Z,17.10
2022-12-17T21:54:01.406Z,15.57
2022-12-17T21:56:29.291Z,16.70
2022-12-17T21:59:01.050Z,14.33
2022-12-17T22:01:31.928Z,16.77
2022-12-17T22:04:02.813Z,16.70
2022-12-17T22:06:33.072Z,15.73
2022-12-17T22:09:07.828Z,15.77
2022-12-17T22:11:39.002Z,14.80
2022-12-17T22:14:09.442Z,15.83
2022-12-17T22:16:43.274Z,16.30
2022-12-17T22:19:11.753Z,17.30
2022-12-17T22:21:40.481Z,14.13
2022-12-17T22:24:11.287Z,15.83
2022-12-17T22:26:37.925Z,16.83
2022-12-17T22:29:04.684Z,15.97
2022-12-17T22:31:51.024Z,17.20
2022-12-17T22:35:08.828Z,15.60
2022-12-17T22:40:06.176Z,15.87
2022-12-17T22:44:29.346Z,16.47
2022-12-17T22:44:44.261Z,14.40
2022-12-17T22:45:51.726Z,14.20
2022-12-17T22:48:21.461Z,15.63
2022-12-17T22:50:51.004Z,17.33
2022-12-17T22:53:22.856Z,17.13
2022-12-17T22:55:50.828Z,17.50
2022-12-17T22:58:18.636Z,18.03
2022-12-17T23:00:45.377Z,15.93
2022-12-17T23:03:12.581Z,15.20
2022-12-17T23:05:39.393Z,15.80
2022-12-17T23:08:06.295Z,16.47
2022-12-17T23:10:33.168Z,16.23
2022-12-17T23:12:59.940Z,15.03
2022-12-17T23:15:34.533Z,14.53
2022-12-17T23:18:03.934Z,15.13
2022-12-17T23:20:33.429Z,16.03
2022-12-17T23:23:00.804Z,15.17
2022-12-17T23:25:29.198Z,14.80
2022-12-17T23:27:56.969Z,13.63
2022-12-17T23:30:23.600Z,13.93
2022-12-17T23:32:50.411Z,15.43
2022-12-17T23:35:17.630Z,15.33
2022-12-17T23:37:44.445Z,14.87
2022-12-17T23:40:13.537Z,14.33
2022-12-17T23:42:40.421Z,13.87
2022-12-17T23:45:08.251Z,14.30
2022-12-17T23:47:35.601Z,13.50
2022-12-17T23:50:02.688Z,13.17
2022-12-17T23:52:29.403Z,12.97
2022-12-17T23:54:56.241Z,14.20
2022-12-17T23:57:23.069Z,13.87
2022-12-17T23:59:49.779Z,14.47
